Terminal Aerodrome Forecast
Issued by NWS Louisville, KY

Home | Current Version | Previous Version | Text Only | Print | Product List | Glossary On
Versions: 1 2 3 4 5 6 7 8 9 10 11 12 13 14 15 16 17 18 19 20
000
FTUS43 KLMK 300200 AAB
TAFBWG
TAF AMD
KBWG 300215Z 3002/3024 VRB05KT P6SM VCTS SCT040CB BKN250
     FM300300 32003KT P6SM SCT150
     FM300700 33004KT 4SM BR SCT025
     FM301400 02008KT P6SM FEW030=

USA.gov is the U.S. government's official web portal to all federal, state and local government web resources and services.